»·PEaware :: SWA6637 KTUS-KDEN

SWA6637 :: KTUS-KDEN

FLIGHT INFORMATION

Flight Status: Arrived
Operator:
Southwest Airlines
More flights by this operator :: More flights under this callsign
Pilot: Anonymous 17611 (17611)
Aircraft: BOEING 737-700
(B737)
More flights by this aircraft type
Origin: KTUS Tucson Intl
United States
Destination: KDEN Denver Intl
United States
More flights between these airports :: More routes between these airports
Route: BURRO4 NOCHI SSO J104 ONM GNDLA TBARR1
File this flight plan on PilotEdge
Remarks:
Altitude:
(Current/Filed)
41,000ft
Speed:
(Current/Filed)
450kts
Departed: 13-Oct-20 08:59 AM
Arrived: 13-Oct-20 10:48 AM
Distance/Time
Traveled:
554nm/1:48
Distance/Time
To Go:
Arrived

Flight Plot

Page will automatically refresh every two minutes.

Flight plan parsing failed; only flown route is shown


Map Options




Map Legend


Flown Route
Filed Route
Departure Airport
Arrival Airport
Navaid (VOR, NDB)
Fix

Horizontal Profiles

Position Reports

Time Latitude Longitude Heading Altitude Ground
Speed
13-Oct-20 08:44 32.120625 -110.939460 43 2590ft 0kts
13-Oct-20 08:45 32.120625 -110.939460 43 2590ft 0kts
13-Oct-20 08:46 32.120625 -110.939460 43 2590ft 0kts
13-Oct-20 08:47 32.120625 -110.939460 43 2590ft 0kts
13-Oct-20 08:48 32.120625 -110.939460 43 2590ft 0kts
13-Oct-20 08:49 32.120625 -110.939460 43 2590ft 0kts
13-Oct-20 08:50 32.120625 -110.939460 43 2590ft 0kts
13-Oct-20 08:51 32.120625 -110.939460 43 2590ft 0kts
13-Oct-20 08:52 32.120232 -110.939782 10 2590ft 2kts
13-Oct-20 08:53 32.120082 -110.939791 353 2590ft 0kts
13-Oct-20 08:54 32.120272 -110.939974 301 2590ft 5kts
13-Oct-20 08:55 32.120067 -110.941185 247 2590ft 7kts
13-Oct-20 08:56 32.123467 -110.945492 314 2590ft 27kts
13-Oct-20 08:57 32.123933 -110.946930 225 2590ft 0kts
13-Oct-20 08:58 32.122054 -110.946363 135 2590ft 56kts
13-Oct-20 08:59 32.087299 -110.904381 133 4177ft 247kts
13-Oct-20 09:00 32.035698 -110.845222 135 7673ft 285kts
13-Oct-20 09:01 31.976567 -110.778063 136 11015ft 325kts
13-Oct-20 09:02 31.930734 -110.681578 103 14506ft 357kts
13-Oct-20 09:03 31.908708 -110.563882 102 17045ft 379kts
13-Oct-20 09:04 31.903080 -110.442497 77 17619ft 380kts
13-Oct-20 09:05 31.926276 -110.319418 76 21003ft 398kts
13-Oct-20 09:06 31.951381 -110.189537 76 23960ft 416kts
13-Oct-20 09:07 31.977383 -110.054115 76 26620ft 434kts
13-Oct-20 09:08 32.004309 -109.913015 76 29034ft 451kts
13-Oct-20 09:09 32.034225 -109.767209 68 31255ft 464kts
13-Oct-20 09:10 32.093265 -109.633035 59 33826ft 461kts
13-Oct-20 09:11 32.155753 -109.502327 59 36286ft 455kts
13-Oct-20 09:12 32.217565 -109.372430 59 38257ft 454kts
13-Oct-20 09:13 32.285040 -109.247058 45 39846ft 451kts
13-Oct-20 09:14 32.373770 -109.143780 41 41156ft 451kts
13-Oct-20 09:15 32.466598 -109.037584 41 41246ft 471kts
13-Oct-20 09:16 32.560060 -108.930275 41 41257ft 468kts
13-Oct-20 09:17 32.650371 -108.826060 41 41316ft 470kts
13-Oct-20 09:18 32.743885 -108.718060 41 41378ft 469kts
13-Oct-20 09:19 32.837182 -108.609986 41 41387ft 470kts
13-Oct-20 09:20 32.930484 -108.501570 41 41388ft 470kts
13-Oct-20 09:21 33.023716 -108.392898 41 41389ft 468kts
13-Oct-20 09:22 33.116134 -108.284871 42 41380ft 465kts
13-Oct-20 09:23 33.208070 -108.177051 42 41380ft 464kts
13-Oct-20 09:24 33.299760 -108.068633 42 41382ft 466kts
13-Oct-20 09:25 33.391433 -107.960326 42 41360ft 463kts
13-Oct-20 09:26 33.483148 -107.851709 42 41348ft 467kts
13-Oct-20 09:27 33.575287 -107.742216 42 41348ft 464kts
13-Oct-20 09:29 33.666809 -107.633151 42 41348ft 466kts
13-Oct-20 09:30 33.758464 -107.523554 42 41349ft 466kts
13-Oct-20 09:31 33.849784 -107.414020 42 41391ft 464kts
13-Oct-20 09:32 33.941426 -107.303762 43 41401ft 467kts
13-Oct-20 09:33 34.032342 -107.194017 43 41401ft 463kts
13-Oct-20 09:34 34.123341 -107.083798 43 41400ft 466kts
13-Oct-20 09:35 34.214172 -106.973466 42 41401ft 471kts
13-Oct-20 09:36 34.312315 -106.868657 24 41413ft 468kts
13-Oct-20 09:37 34.433430 -106.821150 0 41405ft 455kts
13-Oct-20 09:38 34.558411 -106.816406 354 41403ft 449kts
13-Oct-20 09:39 34.683344 -106.814115 354 41408ft 451kts
13-Oct-20 09:40 34.808787 -106.811803 355 41401ft 451kts
13-Oct-20 09:41 34.933700 -106.809421 355 41408ft 445kts
13-Oct-20 09:42 35.053392 -106.807192 356 41428ft 422kts
13-Oct-20 09:43 35.171013 -106.805011 356 41433ft 428kts
13-Oct-20 09:43 35.269463 -106.803130 356 41433ft 427kts
13-Oct-20 09:45 35.407101 -106.800565 356 41433ft 426kts
13-Oct-20 09:45 35.505627 -106.798681 356 41432ft 427kts
13-Oct-20 09:47 35.644123 -106.796075 356 41430ft 427kts
13-Oct-20 09:47 35.742662 -106.794176 356 41449ft 426kts
13-Oct-20 09:48 35.860889 -106.791925 356 41484ft 426kts
13-Oct-20 09:50 35.998903 -106.789300 356 41483ft 426kts
13-Oct-20 09:50 36.097465 -106.787401 356 41482ft 425kts
13-Oct-20 09:51 36.215487 -106.785118 356 41486ft 426kts
13-Oct-20 09:52 36.334029 -106.782838 356 41485ft 428kts
13-Oct-20 09:53 36.452274 -106.780549 356 41483ft 425kts
13-Oct-20 09:54 36.570487 -106.778259 356 41491ft 426kts
13-Oct-20 09:55 36.689215 -106.775931 356 41496ft 427kts
13-Oct-20 09:56 36.807193 -106.764129 7 41495ft 431kts
13-Oct-20 09:57 36.924572 -106.730854 8 41494ft 434kts
13-Oct-20 09:58 37.041925 -106.697976 7 41494ft 435kts
13-Oct-20 09:59 37.160110 -106.664746 7 41497ft 437kts
13-Oct-20 10:00 37.277774 -106.631557 7 41497ft 436kts
13-Oct-20 10:01 37.395725 -106.598183 7 41497ft 436kts
13-Oct-20 10:02 37.513910 -106.564632 7 41497ft 436kts
13-Oct-20 10:03 37.635601 -106.530038 7 41500ft 466kts
13-Oct-20 10:04 37.759339 -106.494438 7 41119ft 433kts
13-Oct-20 10:05 37.875342 -106.461406 7 40012ft 443kts
13-Oct-20 10:06 37.993413 -106.427408 7 37834ft 430kts
13-Oct-20 10:07 38.109804 -106.393932 7 36371ft 434kts
13-Oct-20 10:08 38.226904 -106.360081 7 34916ft 435kts
13-Oct-20 10:09 38.343616 -106.326297 8 33468ft 457kts
13-Oct-20 10:10 38.464602 -106.291023 8 31952ft 443kts
13-Oct-20 10:11 38.583620 -106.255543 12 30431ft 438kts
13-Oct-20 10:12 38.687823 -106.176293 40 28936ft 444kts
13-Oct-20 10:13 38.769111 -106.058301 46 27421ft 437kts
13-Oct-20 10:14 38.845836 -105.940388 46 25915ft 427kts
13-Oct-20 10:15 38.920721 -105.824572 47 24461ft 418kts
13-Oct-20 10:16 38.994546 -105.709887 46 23164ft 414kts
13-Oct-20 10:17 39.067273 -105.596578 47 21876ft 409kts
13-Oct-20 10:18 39.138562 -105.485112 47 20596ft 401kts
13-Oct-20 10:19 39.208436 -105.374136 48 19526ft 395kts
13-Oct-20 10:20 39.272934 -105.261433 63 18429ft 391kts
13-Oct-20 10:21 39.299897 -105.126519 81 16372ft 381kts
13-Oct-20 10:22 39.315393 -104.997421 78 14189ft 341kts
13-Oct-20 10:23 39.336511 -104.883789 75 14042ft 323kts
13-Oct-20 10:24 39.393593 -104.826511 358 13631ft 270kts
13-Oct-20 10:25 39.468088 -104.824788 353 12983ft 266kts
13-Oct-20 10:26 39.541503 -104.827043 353 11981ft 262kts
13-Oct-20 10:27 39.613468 -104.829265 353 11070ft 255kts
13-Oct-20 10:28 39.684852 -104.831511 353 11037ft 259kts
13-Oct-20 10:29 39.756762 -104.833778 353 11037ft 260kts
13-Oct-20 10:30 39.829103 -104.836067 354 11036ft 260kts
13-Oct-20 10:31 39.901575 -104.838376 354 11029ft 263kts
13-Oct-20 10:32 39.974983 -104.838392 358 10137ft 264kts
13-Oct-20 10:33 40.022887 -104.785924 90 8837ft 241kts
13-Oct-20 10:34 40.010141 -104.708671 148 7659ft 215kts
13-Oct-20 10:35 39.956689 -104.697802 161 6558ft 173kts
13-Oct-20 10:36 39.907278 -104.698010 183 7334ft 205kts
13-Oct-20 10:37 39.854097 -104.716222 244 8310ft 218kts
13-Oct-20 10:38 39.889772 -104.778616 343 9016ft 246kts
13-Oct-20 10:39 39.943461 -104.782096 357 9025ft 250kts
13-Oct-20 10:40 40.013136 -104.784599 357 9015ft 251kts
13-Oct-20 10:41 40.081848 -104.786840 357 9012ft 231kts
13-Oct-20 10:42 40.116804 -104.738137 115 8539ft 252kts
13-Oct-20 10:43 40.059607 -104.695973 158 7345ft 227kts
13-Oct-20 10:44 40.001869 -104.694917 176 7009ft 191kts
13-Oct-20 10:45 39.948701 -104.695689 178 6158ft 199kts
13-Oct-20 10:46 39.893239 -104.696164 175 5367ft 198kts
13-Oct-20 10:47 39.860891 -104.696445 178 5324ft 21kts

Navigation Log

Ident Type
Flight plan parsing failed, navigation log unavailable